Weather observations for the past three days for
Hebron, Hebron Municipal Airport
Imperial (Metric)
Date Time (cdt) Wind (mph) Vis. (mi.) Weather Sky Cond. Temperature (ºF) Relative Humidity Wind Chill (°F) Heat Index (°F) Pressure Precipitation (in)
Air Dwpt 6 hour altimeter (in) sea level (mb) 1 hr 3 hr 6 hr
Max. Min.
03 12:15 N 6 10.00 Fair CLR 74.5 29.7 19% 29.91 0.0
03 11:55 NE 12 G 16 10.00 Fair CLR 73.9 30 20% 29.91 0.0
03 11:35 N 8 10.00 Fair CLR 73.2 30.6 21% 29.92 0.0
03 11:15 N 7 10.00 Fair CLR 70.5 30.9 23% 29.93 0.0
03 10:55 N 6 10.00 Fair CLR 68.9 31.3 25% 29.93 0.0
03 10:35 N 3 10.00 Fair CLR 67.5 31.6 26% 29.92 0.0
03 10:15 N 5 10.00 Fair CLR 66.6 31.3 27% 29.92 0.0
03 09:55 W 5 10.00 Fair CLR 65.7 32.7 29% 29.92 0.0
03 09:35 W 7 10.00 Fair CLR 63.7 35.1 35% 29.92 0.0
03 09:15 W 9 10.00 Fair CLR 62.4 35.8 37% 29.91 0.0
03 08:55 W 7 10.00 Fair CLR 60.6 36.3 40% 29.92 0.0
03 08:35 NW 3 10.00 Fair CLR 58.5 37 45% 29.92 0.0
03 08:15 SW 7 10.00 Fair CLR 55 36.9 51% 29.91 0.0
03 07:55 SW 10 10.00 Fair CLR 51.8 36.5 56% 29.9 0.0
03 07:35 SW 7 10.00 Fair CLR 48.9 35.8 61% 46 29.92 0.0
03 07:15 SW 5 10.00 Fair CLR 48.6 35.6 61% 47 29.93 0.0
03 06:55 NW 7 10.00 Fair CLR 50 36 55.4 50 59% 48 29.93 0.0
03 06:35 NW 10 10.00 Fair CLR 51.1 35.6 56% 29.9 0.0
03 06:15 SW 9 10.00 Fair CLR 51.3 34.9 54% 29.88 0.0
03 05:35 SW 12 G 17 10.00 Fair CLR 51.4 33.8 51% 29.88 0.0
03 05:15 SW 14 G 18 10.00 Fair CLR 51.4 32.9 49% 29.89 0.0
03 04:55 SW 12 G 22 10.00 Fair CLR 51.4 32 48% 29.89 0.0
03 04:35 SW 12 G 17 10.00 Fair CLR 51.3 31.8 48% 29.9 0.0
03 04:15 SW 13 10.00 Fair CLR 52 31.1 45% 29.9 0.0
03 03:55 SW 13 G 21 10.00 Fair CLR 52.7 30.6 43% 29.91 0.0
03 03:35 SW 13 G 18 10.00 Fair CLR 53.1 30 41% 29.91 0.0
03 03:15 SW 16 G 22 10.00 Fair CLR 53.6 29.7 40% 29.91 0.0
03 02:55 SW 17 G 23 10.00 Fair CLR 53.6 29.3 39% 29.92 0.0
03 02:35 SW 14 10.00 Fair CLR 52.9 29.7 41% 29.93 0.0
03 02:15 SW 14 10.00 Fair CLR 52.9 29.3 40% 29.93 0.0
03 01:55 SW 13 G 20 10.00 Fair CLR 53.8 29.1 39% 29.93 0.0
03 01:35 S 15 G 21 10.00 Fair CLR 55 28.4 36% 29.94 0.0
03 01:15 S 14 G 18 10.00 Fair CLR 55 28 36% 29.95 0.0
03 00:55 S 9 10.00 Fair CLR 55.2 27 68.9 54.9 34% 29.95 0.0
03 00:35 S 10 G 16 10.00 Fair CLR 55.6 26.2 32% 29.95 0.0
03 00:15 S 9 10.00 Fair CLR 55.4 26.2 33% 29.95 0.0
02 23:55 S 10 10.00 Fair CLR 55.4 27.1 34% 29.96 0.0
02 23:35 S 13 10.00 Fair CLR 56.3 26.8 32% 29.96 0.0
02 23:15 S 14 10.00 Fair CLR 56.5 27 32% 29.97 0.0
02 22:55 S 13 10.00 Fair CLR 56.3 27.1 33% 29.98 0.0
02 22:35 S 12 10.00 Fair CLR 56.5 27.1 32% 29.99 0.0
02 22:15 S 12 10.00 Fair CLR 56.3 27 32% 29.99 0.0
02 21:55 S 10 10.00 Fair CLR 55.9 26.1 32% 30 0.0
02 21:35 S 9 10.00 Fair CLR 55.9 25.3 31% 30 0.0
02 21:15 S 7 10.00 Fair CLR 56.5 25.7 31% 30 0.0
02 20:55 S 7 10.00 Fair CLR 57.4 25.3 29% 30 0.0
02 20:35 S 7 10.00 Fair CLR 60.4 23.5 24% 30 0.0
02 20:15 S 8 10.00 Fair CLR 62.6 23.2 22% 30 0.0
02 19:55 SW 6 10.00 Fair CLR 65.3 21.7 19% 30 0.0
02 19:35 SW 7 10.00 Fair CLR 67.1 20.1 17% 30 0.0
02 19:15 SW 6 10.00 Fair CLR 68.4 18.3 15% 30.01 0.0
02 18:55 SW 6 10.00 Fair CLR 68.9 16.5 70 63.5 13% 30.02 0.0
02 18:35 SW 10 10.00 Fair CLR 69.1 14.7 12% 30.03 0.0
02 18:15 W 8 10.00 Fair CLR 69.3 14.9 12% 30.03 0.0
02 17:55 W 8 10.00 Fair CLR 69.3 16.2 13% 30.03 0.0
02 17:35 W 12 10.00 Fair CLR 69.6 14.5 12% 30.04 0.0
02 17:15 W 8 10.00 Fair CLR 70 15.3 12% 30.04 0.0
02 16:55 W 10 G 17 10.00 Fair CLR 69.6 14.4 12% 30.05 0.0
02 16:35 W 12 10.00 Fair CLR 70 15.8 12% 30.06 0.0
02 16:15 W 9 10.00 Fair CLR 69.3 14.7 12% 30.07 0.0
02 15:55 NW 10 10.00 Fair CLR 69.3 14.5 12% 30.08 0.0
02 15:35 W 13 G 17 10.00 Fair CLR 68.5 17.1 14% 30.09 0.0
02 15:15 W 7 G 16 10.00 Fair CLR 67.6 17.1 14% 30.09 0.0
02 14:55 N 5 10.00 Fair CLR 66.4 17.4 15% 30.1 0.0
02 14:35 W 5 10.00 Fair CLR 66.6 19 16% 30.11 0.0
02 14:15 NW 6 10.00 Fair CLR 65.7 18.7 16% 30.12 0.0
02 13:55 SW 8 10.00 Fair CLR 65.5 19.4 17% 30.13 0.0
02 13:35 SW 7 10.00 Fair CLR 64.9 20.3 18% 30.13 0.0
02 13:15 NW 6 10.00 Fair CLR 63.9 19.8 18% 30.14 0.0
02 12:55 NW 6 G 16 10.00 Fair CLR 64.2 21.2 64.2 31.5 19% 30.15 0.0
02 12:35 W 5 10.00 Fair CLR 63.1 20.3 19% 30.16 0.0
02 12:15 N 7 10.00 Fair CLR 62.1 21.9 21% 30.17 0.0
02 11:55 W 9 10.00 Fair CLR 60.1 21.6 23% 30.18 0.0
02 11:35 NW 7 10.00 Fair CLR 59.9 22.6 24% 30.19 0.0
02 11:15 N 8 10.00 Fair CLR 59.4 22.6 24% 30.19 0.0
02 10:55 NW 3 10.00 Fair CLR 58.5 22.8 25% 30.19 0.0
02 10:35 W 5 10.00 Fair CLR 57.2 22.5 26% 30.2 0.0
02 10:15 W 3 10.00 Fair CLR 55.9 21.7 26% 30.2 0.0
02 09:55 Calm 10.00 Fair CLR 54.3 24.4 31% 30.2 0.0
02 09:35 Calm 10.00 Fair CLR 52.2 25.5 36% 30.2 0.0
02 09:15 Calm 10.00 Fair CLR 50 27.7 42% 30.21 0.0
02 08:55 Calm 10.00 Fair CLR 46.4 30 53% 30.21 0.0
02 08:35 Calm 10.00 Fair CLR 42.1 30.4 63% 30.21 0.0
02 08:15 W 3 10.00 Fair CLR 38.1 28 67% 30.21 0.0
02 07:55 Calm 10.00 Fair CLR 36 27.3 71% 30.21 0.0
02 07:35 W 3 10.00 Fair CLR 34.2 26.4 73% 30.2 0.0
02 07:15 Calm 10.00 Fair CLR 32.5 25.7 76% 30.2 0.0
02 06:55 Calm 10.00 Fair CLR 31.1 25 37.8 30 78% 30.2 0.0
02 06:35 Calm 10.00 Fair CLR 30.2 24.8 80% 30.19 0.0
02 06:15 Calm 10.00 Fair CLR 30.9 25 79% 30.19 0.0
02 05:55 Calm 10.00 Fair CLR 30.9 25.3 80% 30.19 0.0
02 05:35 Calm 10.00 Fair CLR 30 25 82% 30.19 0.0
02 05:15 Calm 10.00 Fair CLR 31.1 25.3 79% 30.18 0.0
02 04:55 Calm 10.00 Fair CLR 31.8 25.5 78% 30.18 0.0
02 04:35 Calm 10.00 Fair CLR 32 25.7 78% 30.18 0.0
02 04:15 Calm 10.00 Fair CLR 32 25.7 78% 30.18 0.0
02 03:55 Calm 10.00 Fair CLR 31.6 25.7 79% 30.18 0.0
02 03:35 Calm 10.00 Fair CLR 32.5 26.6 79% 30.17 0.0
02 03:15 Calm 10.00 Fair CLR 34 26.1 73% 30.17 0.0
02 02:55 Calm 10.00 Fair CLR 34.9 26.1 70% 30.18 0.0
02 02:15 Calm 10.00 Fair CLR 36.7 26.1 65% 30.18 0.0
02 01:55 Calm 10.00 Fair CLR 36 26.6 69% 30.17 0.0
02 01:35 Calm 10.00 Fair CLR 36.1 26.4 68% 30.17 0.0
02 01:15 Calm 10.00 Fair CLR 37.4 25.7 63% 30.17 0.0
02 00:55 Calm 10.00 Fair CLR 36.9 26.4 61.3 36.7 66% 30.17 0.0
02 00:35 Calm 10.00 Fair CLR 38.1 25.7 61% 30.16 0.0
02 00:15 Calm 10.00 Fair CLR 36.9 26.6 66% 30.16 0.0
01 23:55 Calm 10.00 Fair CLR 38.7 26.1 61% 30.15 0.0
01 23:35 Calm 10.00 Fair CLR 41.9 25.3 52% 30.15 0.0
01 23:15 Calm 10.00 Fair CLR 41.4 25.3 53% 30.15 0.0
01 22:55 Calm 10.00 Fair CLR 44.2 24.3 45% 30.15 0.0
01 22:35 Calm 10.00 Fair CLR 44.2 24.8 46% 30.15 0.0
01 22:15 Calm 10.00 Fair CLR 43.2 25.5 50% 30.14 0.0
01 21:55 NE 5 10.00 Fair CLR 46.6 24.3 42% 45 30.13 0.0
01 21:35 NE 6 10.00 Fair CLR 49.3 23 36% 47 30.12 0.0
01 21:15 NE 8 10.00 Fair CLR 50.4 22.6 34% 30.11 0.0
01 20:55 NE 7 10.00 Fair CLR 51.8 22.3 31% 30.1 0.0
01 20:35 NE 8 10.00 Fair CLR 53.6 21.7 29% 30.09 0.0
01 20:15 NE 9 10.00 Fair CLR 56.1 22.3 27% 30.08 0.0
01 19:55 N 10 10.00 Fair CLR 57.7 23.2 26% 30.08 0.0
01 19:35 N 12 G 17 10.00 Fair CLR 59.5 23.2 25% 30.06 0.0
01 19:15 NE 9 10.00 Fair CLR 60.8 23.4 24% 30.06 0.0
01 18:55 N 12 G 17 10.00 Fair CLR 61.2 23.4 64.4 58.1 23% 30.05 0.0
01 18:35 N 13 G 16 10.00 Fair CLR 61.7 23.5 23% 30.05 0.0
01 18:15 N 12 G 17 10.00 Partly Cloudy SCT080 62.6 24.1 23% 30.06 0.0
01 17:55 N 17 G 22 10.00 Overcast OVC090 61.9 24.1 24% 30.06 0.0
01 17:35 N 9 G 20 10.00 Mostly Cloudy BKN090 61.7 23.7 23% 30.06 0.0
01 17:15 N 8 G 21 10.00 Overcast SCT080 OVC090 62.6 23.5 22% 30.06 0.0
01 16:55 N 9 G 17 10.00 Partly Cloudy SCT080 61.2 23.7 24% 30.06 0.0
01 16:35 N 8 G 17 10.00 Partly Cloudy SCT080 63 23.4 22% 30.07 0.0
01 16:15 NW 8 10.00 Partly Cloudy SCT090 62.8 23.7 22% 30.07 0.0
01 15:55 N 5 10.00 Partly Cloudy SCT085 63 24.8 23% 30.08 0.0
01 15:35 N 10 G 16 10.00 Partly Cloudy SCT085 61.7 24.6 24% 30.08 0.0
01 15:15 N 3 G 17 10.00 Fair CLR 62.8 25.2 24% 30.09 0.0
01 14:55 N 12 G 17 10.00 Partly Cloudy SCT070 62.8 26.1 25% 30.09 0.0
01 14:35 NE 14 G 20 10.00 Partly Cloudy SCT070 62.2 26.1 25% 30.09 0.0
01 14:15 N 7 10.00 Fair CLR 62.1 25.7 25% 30.1 0.0
01 13:55 N 3 10.00 Partly Cloudy SCT120 61.2 26.6 27% 30.1 0.0
01 13:35 NE 5 10.00 Mostly Cloudy SCT065 BKN120 59.5 26.4 28% 30.1 0.0
01 13:15 N 12 G 16 10.00 Partly Cloudy SCT120 60.4 27.1 28% 30.11 0.0
01 12:55 N 5 G 16 10.00 Partly Cloudy SCT100 SCT120 59 26.8 59.7 35.2 29% 30.12 0.0
01 12:35 N 8 G 16 10.00 Mostly Cloudy BKN100 58.3 27 30% 30.12 0.0
01 12:15 N 7 10.00 Overcast OVC110 57.2 28.2 33% 30.12 0.0
01 11:55 N 5 10.00 Mostly Cloudy BKN110 55.4 28.4 36% 30.13 0.0
01 11:35 N 8 10.00 Partly Cloudy SCT110 55 28.9 37% 30.13 0.0
01 11:15 N 8 10.00 Partly Cloudy SCT100 54 27.9 37% 30.13 0.0
01 10:55 N 8 10.00 Mostly Cloudy BKN110 54.5 27.9 36% 30.12 0.0
01 10:35 N 10 10.00 Overcast OVC110 55.4 28.4 36% 30.12 0.0
01 10:15 NW 10 10.00 Overcast OVC110 55.8 27.5 34% 30.12 0.0
01 09:55 NW 10 G 17 10.00 Mostly Cloudy BKN110 55.4 30.7 39% 30.12 0.0
01 09:35 NW 10 G 17 10.00 Mostly Cloudy BKN110 53.4 32.5 45% 30.12 0.0
01 09:15 NW 9 10.00 Partly Cloudy SCT110 50.9 34.2 53% 30.13 0.0
01 08:55 NW 5 10.00 Fair CLR 46.8 34.2 62% 45 30.13 0.0
01 08:35 N 6 10.00 Fair CLR 44.6 34.7 68% 42 30.13 0.0
01 08:15 NW 6 10.00 Fair CLR 42.3 34 73% 39 30.13 0.0
01 07:55 N 9 10.00 Fair CLR 40.1 33.8 78% 35 30.12 0.0
01 07:35 NW 3 10.00 Fair CLR 37.6 32.4 81% 30.11 0.0
01 07:15 W 3 10.00 Fair CLR 36.5 32 84% 30.11 0.0
01 06:55 W 3 10.00 Fair CLR 35.4 30.9 36.9 32.2 84% 30.1 0.0
01 06:35 W 3 10.00 Fair CLR 35.2 31.1 85% 30.1 0.0
01 06:15 Calm 10.00 Fair CLR 35.4 30.9 84% 30.1 0.0
01 05:55 Calm 10.00 Fair CLR 34 30.6 87% 30.1 0.0
01 05:35 Calm 10.00 Fair CLR 34.7 30.9 86% 30.1 0.0
01 05:15 W 5 10.00 Fair CLR 34.2 30.7 87% 31 30.1 0.0
01 04:55 Calm 10.00 Fair CLR 33.3 30 88% 30.1 0.0
01 04:35 Calm 10.00 Fair CLR 33.6 29.5 85% 30.1 0.0
01 04:15 Calm 10.00 Fair CLR 33.8 30.7 89% 30.1 0.0
01 03:55 Calm 10.00 Fair CLR 33.3 30 88% 30.1 0.0
01 03:35 Calm 10.00 Fair CLR 35.2 30.4 83% 30.1 0.0
01 03:15 Calm 10.00 Fair CLR 33.1 29.5 87% 30.11 0.0
01 02:55 Calm 10.00 Fair CLR 35.1 30.7 84% 30.11 0.0
01 02:35 W 5 10.00 Fair CLR 36.3 31.3 82% 33 30.12 0.0
01 01:55 Calm 10.00 Fair CLR 34.9 31.5 87% 30.13 0.0
01 01:35 Calm 10.00 Fair CLR 35.1 31.6 87% 30.14 0.0
01 01:15 Calm 10.00 Fair CLR 35.1 31.6 87% 30.14 0.0
01 00:55 Calm 10.00 Fair CLR 37.2 31.3 59.2 36.7 79% 30.14 0.0
01 00:35 Calm 10.00 Fair CLR 38.3 32 78% 30.14 0.0
30 23:55 Calm 10.00 Fair CLR 37.2 32 81% 30.15 0.0
30 23:35 Calm 10.00 Fair CLR 38.8 32 77% 30.14 0.0
30 23:15 Calm 10.00 Fair CLR 40.3 32 72% 30.15 0.0
30 22:55 Calm 10.00 Fair CLR 43.7 32.4 64% 30.15 0.0
30 22:35 Calm 10.00 Fair CLR 44.6 32.5 63% 30.15 0.0
30 22:15 NE 3 10.00 Fair CLR 45.7 32.9 61% 30.14 0.0
30 21:55 NE 5 10.00 Fair CLR 47.3 32.9 57% 46 30.14 0.0
30 21:35 N 3 10.00 Fair CLR 48.7 33.1 55% 30.13 0.0
30 20:55 NE 6 10.00 Mostly Cloudy SCT075 BKN095 51.6 32.5 48% 30.11 0.0
30 20:35 NE 8 10.00 Overcast OVC065 52.9 32.9 47% 30.1 0.0
30 20:15 N 12 G 17 10.00 Mostly Cloudy BKN070 54.1 32.4 44% 30.09 0.0
30 19:55 N 14 G 20 10.00 Partly Cloudy SCT060 54.9 32.5 43% 30.09 0.0
30 19:35 N 15 G 21 10.00 Mostly Cloudy BKN060 56.3 32.4 40% 30.08 0.0
30 19:15 NE 15 G 23 10.00 Partly Cloudy SCT070 58.1 32.7 38% 30.07 0.0
30 18:55 N 14 10.00 Partly Cloudy SCT060 59.5 32.2 63.1 58.1 36% 30.07 0.0
30 18:35 N 10 10.00 Overcast BKN060 BKN075 OVC090 60.1 32 35% 30.07 0.0
30 18:15 N 10 10.00 Partly Cloudy SCT060 SCT075 SCT090 58.3 32 37% 30.07 0.0
30 17:55 N 14 G 17 10.00 Partly Cloudy SCT080 59.2 31.8 36% 30.06 0.0
30 17:35 N 10 10.00 Mostly Cloudy SCT075 BKN090 59.7 30.4 33% 30.06 0.0
30 17:15 NE 14 10.00 Mostly Cloudy BKN075 BKN090 59 31.8 36% 30.06 0.0
30 16:55 N 9 10.00 Overcast SCT075 OVC080 59.9 28.8 31% 30.06 0.0
30 16:35 N 18 G 24 10.00 Overcast BKN075 OVC085 60.8 27.9 29% 30.06 0.0
30 16:15 N 9 10.00 Overcast OVC075 60.8 27.3 28% 30.06 0.0
30 15:55 N 10 G 17 10.00 Mostly Cloudy BKN075 BKN085 61.2 26.8 27% 30.07 0.0
30 15:35 NW 7 G 10 10.00 Partly Cloudy SCT065 SCT085 62.4 27.1 26% 30.08 0.0
30 15:15 NE 10 G 17 10.00 Mostly Cloudy BKN065 62.1 28.4 28% 30.08 0.0
30 14:55 N 8 G 20 10.00 Mostly Cloudy BKN065 BKN080 62.1 28 28% 30.09 0.0
30 14:35 N 13 G 20 10.00 Mostly Cloudy BKN065 61.7 28.2 28% 30.09 0.0
30 14:15 N 6 G 18 10.00 Partly Cloudy SCT065 60.4 27.7 29% 30.09 0.0
30 13:55 N 13 G 18 10.00 Partly Cloudy SCT085 60.3 27.5 29% 30.09 0.0
30 13:35 N 12 G 17 10.00 Mostly Cloudy BKN085 59.5 30 33% 30.1 0.0
30 13:15 N 13 G 21 10.00 Partly Cloudy SCT085 60.1 29.5 31% 30.11 0.0
30 12:55 N 14 G 23 10.00 Partly Cloudy SCT085 59.2 28.6 60.4 43.2 31% 30.11 0.0
Date Time (cdt) Wind (mph) Vis. (mi.) Weather Sky Cond. Air Dwpt Max. Min. Relative Humidity Wind Chill (°F) Heat Index (°F) altimeter (in) sea level (mb) 1 hr 3 hr 6 hr
6 hour
Temperature (ºF) Pressure Precipitation (in)